Time;durP1;ratioP1;P1;durP2;ratioP2;P2;SDS_P1;SDS_P2;PMS_P1;PMS_P2;Temp;Humidity;BMP_temperature;BMP_pressure;BME280_temperature;BME280_humidity;BME280_pressure;Samples;Min_cycle;Max_cycle;Signal;HPM_P1;HPM_P2
2024/03/03 00:00:13;;;;;;;12.37;7.00;;;8.90;61.00;;;;;;5015629;28;20862;-68
2024/03/03 00:02:40;;;;;;;11.17;7.30;;;9.00;61.10;;;;;;5015492;28;20863;-68
2024/03/03 00:05:07;;;;;;;12.63;6.23;;;9.10;61.20;;;;;;5015451;28;20453;-68
2024/03/03 00:07:34;;;;;;;15.97;8.03;;;9.10;61.20;;;;;;5015288;28;20460;-68
2024/03/03 00:10:01;;;;;;;9.13;6.47;;;9.10;61.20;;;;;;5015497;28;20465;-68
2024/03/03 00:12:29;;;;;;;13.03;7.67;;;9.10;61.20;;;;;;4999045;28;20480;-69
2024/03/03 00:14:55;;;;;;;14.50;7.10;;;9.10;61.20;;;;;;5014939;28;20967;-68
2024/03/03 00:17:22;;;;;;;9.30;6.50;;;9.10;61.30;;;;;;4998427;28;21008;-68
2024/03/03 00:19:49;;;;;;;16.17;8.57;;;8.90;61.10;;;;;;4999306;28;20453;-67
2024/03/03 00:22:16;;;;;;;11.17;7.83;;;8.80;65.20;;;;;;5014934;28;20464;-67
2024/03/03 00:24:43;;;;;;;11.20;8.60;;;8.70;69.00;;;;;;5014902;28;20547;-67
2024/03/03 00:27:10;;;;;;;11.93;8.87;;;8.60;69.10;;;;;;5015190;28;20453;-68
2024/03/03 00:29:38;;;;;;;14.83;9.07;;;8.50;70.60;;;;;;5014183;28;20457;-68
2024/03/03 00:32:05;;;;;;;16.83;10.67;;;8.50;76.50;;;;;;5009013;28;20460;-68
2024/03/03 00:34:32;;;;;;;15.40;10.07;;;8.40;76.50;;;;;;5014008;28;20849;-67
2024/03/03 00:36:59;;;;;;;15.80;9.90;;;8.50;76.60;;;;;;5009597;28;20559;-68
2024/03/03 00:39:26;;;;;;;13.10;9.77;;;8.60;76.60;;;;;;5012398;28;20484;-68
2024/03/03 00:41:52;;;;;;;13.43;12.10;;;8.60;76.60;;;;;;5014837;28;20453;-68
2024/03/03 00:44:19;;;;;;;13.80;11.57;;;8.60;76.70;;;;;;5006251;28;20474;-68
2024/03/03 00:46:47;;;;;;;13.73;11.70;;;8.60;76.70;;;;;;5005306;28;20452;-67
2024/03/03 00:49:14;;;;;;;14.87;11.80;;;8.60;76.70;;;;;;5014485;28;20449;-68
2024/03/03 00:51:41;;;;;;;13.77;12.37;;;8.60;76.70;;;;;;5006539;28;20460;-68
2024/03/03 00:54:09;;;;;;;15.87;14.47;;;8.60;76.70;;;;;;4999652;28;20496;-68
2024/03/03 00:56:35;;;;;;;16.03;14.47;;;8.50;76.60;;;;;;5003813;28;20477;-68
2024/03/03 00:59:02;;;;;;;18.60;16.80;;;8.50;76.60;;;;;;4994548;28;20972;-68
2024/03/03 01:01:29;;;;;;;21.73;19.97;;;8.40;76.50;;;;;;5012070;28;20819;-67
2024/03/03 01:03:57;;;;;;;26.07;23.90;;;8.40;76.50;;;;;;5001119;28;20478;-68
2024/03/03 01:06:24;;;;;;;24.60;22.77;;;8.40;76.50;;;;;;4994694;28;20460;-68
2024/03/03 01:08:50;;;;;;;23.60;21.87;;;8.50;76.60;;;;;;5006868;28;20860;-68
2024/03/03 01:11:17;;;;;;;24.63;22.63;;;8.60;76.70;;;;;;5014208;28;20452;-68
2024/03/03 01:13:44;;;;;;;19.07;17.63;;;8.70;76.80;;;;;;5014227;28;20481;-67
2024/03/03 01:16:11;;;;;;;18.60;17.00;;;8.80;76.90;;;;;;5013769;28;20464;-67
2024/03/03 01:18:38;;;;;;;23.40;17.87;;;8.80;76.90;;;;;;5006084;28;20494;-67
2024/03/03 01:21:06;;;;;;;14.70;13.20;;;8.80;76.90;;;;;;5014130;28;20459;-68
2024/03/03 01:23:34;;;;;;;13.60;11.53;;;8.90;77.00;;;;;;5010806;28;20469;-68
2024/03/03 01:26:01;;;;;;;13.23;11.67;;;9.10;77.20;;;;;;5007967;28;20489;-68
2024/03/03 01:28:28;;;;;;;13.53;10.73;;;9.00;77.00;;;;;;5005027;28;20445;-68
2024/03/03 01:30:54;;;;;;;12.93;9.27;;;9.10;77.10;;;;;;5006925;28;20844;-68
2024/03/03 01:33:21;;;;;;;13.53;9.30;;;9.10;77.10;;;;;;5012924;28;20954;-67
2024/03/03 01:35:48;;;;;;;14.60;9.73;;;9.30;77.20;;;;;;5013439;28;20453;-68
2024/03/03 01:38:16;;;;;;;13.67;7.90;;;9.30;77.10;;;;;;5013635;28;20484;-67
2024/03/03 01:40:43;;;;;;;12.27;8.03;;;9.40;77.00;;;;;;5013317;28;20453;-68
2024/03/03 01:43:11;;;;;;;16.10;9.07;;;9.30;77.00;;;;;;5013461;28;20479;-68
2024/03/03 01:45:37;;;;;;;15.43;9.00;;;9.30;77.10;;;;;;5002654;28;20464;-68
2024/03/03 01:48:05;;;;;;;12.37;9.17;;;9.20;77.20;;;;;;4993766;28;20966;-68
2024/03/03 01:50:31;;;;;;;13.03;9.30;;;9.20;77.20;;;;;;4993596;28;20468;-68
2024/03/03 01:52:58;;;;;;;16.67;10.50;;;9.10;77.10;;;;;;4998979;28;20473;-68
2024/03/03 01:55:27;;;;;;;17.50;9.90;;;9.10;77.10;;;;;;5004142;28;20461;-68
2024/03/03 01:58:01;;;;;;;13.90;10.80;;;9.00;77.00;;;;;;5012908;28;20481;-68
2024/03/03 02:00:29;;;;;;;14.10;10.80;;;8.80;76.90;;;;;;5013380;28;20461;-68
2024/03/03 02:02:56;;;;;;;16.13;11.57;;;8.70;76.80;;;;;;5013326;28;20535;-68
2024/03/03 02:05:23;;;;;;;18.40;11.10;;;8.70;76.80;;;;;;5006314;28;20489;-68
2024/03/03 02:07:51;;;;;;;14.93;10.50;;;8.70;76.80;;;;;;5005625;28;20449;-68
2024/03/03 02:10:18;;;;;;;15.80;10.97;;;8.70;76.80;;;;;;5005311;28;20461;-68
2024/03/03 02:12:46;;;;;;;14.47;10.37;;;8.70;76.80;;;;;;5000065;28;20479;-68
2024/03/03 02:15:13;;;;;;;13.93;10.47;;;8.80;76.90;;;;;;5009310;28;20528;-67
2024/03/03 02:17:40;;;;;;;14.20;9.63;;;9.00;77.00;;;;;;5012915;28;20514;-66
2024/03/03 02:20:09;;;;;;;13.40;10.20;;;9.00;77.00;;;;;;5012921;28;20850;-68
2024/03/03 02:22:37;;;;;;;16.57;9.57;;;9.20;76.60;;;;;;5012707;28;20472;-68
2024/03/03 02:25:05;;;;;;;15.90;7.93;;;9.10;77.00;;;;;;5012427;28;20464;-68
2024/03/03 02:27:33;;;;;;;13.30;7.90;;;9.20;70.50;;;;;;5004787;28;20449;-68
2024/03/03 02:30:00;;;;;;;15.23;9.07;;;9.30;70.20;;;;;;5012909;28;20842;-68
2024/03/03 02:32:28;;;;;;;11.20;7.63;;;9.30;69.70;;;;;;4995504;28;20500;-67
2024/03/03 02:34:54;;;;;;;12.57;7.40;;;9.40;69.50;;;;;;5005565;28;20945;-68
2024/03/03 02:37:21;;;;;;;10.30;6.57;;;9.40;69.30;;;;;;5012096;28;21020;-67
2024/03/03 02:39:49;;;;;;;11.93;7.70;;;9.40;69.50;;;;;;4993387;28;20450;-67
2024/03/03 02:42:16;;;;;;;12.73;8.63;;;9.40;69.50;;;;;;5000679;28;20452;-68
2024/03/03 02:44:43;;;;;;;14.30;8.73;;;9.50;69.60;;;;;;4992921;28;20464;-68
2024/03/03 02:47:10;;;;;;;16.60;8.30;;;9.40;69.50;;;;;;5008106;28;20460;-68
2024/03/03 02:49:36;;;;;;;12.70;7.83;;;9.40;68.30;;;;;;5007584;28;20832;-67
2024/03/03 02:52:04;;;;;;;14.47;7.20;;;9.50;65.20;;;;;;5011432;28;20455;-67
2024/03/03 02:54:30;;;;;;;11.77;6.53;;;9.40;66.70;;;;;;5011869;28;20469;-67
2024/03/03 02:56:58;;;;;;;13.83;7.57;;;9.40;65.20;;;;;;5012410;28;20459;-68
2024/03/03 02:59:25;;;;;;;14.33;7.40;;;9.50;61.70;;;;;;5012174;28;20842;-67
2024/03/03 03:01:52;;;;;;;10.70;7.00;;;9.50;61.70;;;;;;4999492;28;20971;-68
2024/03/03 03:04:19;;;;;;;11.90;7.17;;;9.50;61.60;;;;;;4992135;28;20854;-67
2024/03/03 03:06:45;;;;;;;13.20;7.27;;;9.40;61.50;;;;;;5004074;28;20452;-68
2024/03/03 03:09:12;;;;;;;12.17;7.00;;;9.40;62.80;;;;;;5009491;28;20975;-68
2024/03/03 03:11:39;;;;;;;11.70;7.07;;;9.50;62.40;;;;;;5009795;28;20458;-67
2024/03/03 03:14:07;;;;;;;12.30;6.30;;;9.30;62.10;;;;;;4992401;28;20469;-68
2024/03/03 03:16:34;;;;;;;13.70;7.63;;;9.30;64.60;;;;;;5008880;28;20452;-68
2024/03/03 03:19:00;;;;;;;14.43;7.63;;;9.30;62.10;;;;;;5006085;28;20476;-67
2024/03/03 03:21:28;;;;;;;13.13;6.70;;;9.40;64.60;;;;;;4994706;28;20484;-68
2024/03/03 03:23:54;;;;;;;14.83;8.60;;;9.40;62.90;;;;;;5004763;28;20491;-67
2024/03/03 03:26:21;;;;;;;11.73;6.93;;;9.30;62.30;;;;;;5012074;28;20463;-67
2024/03/03 03:28:48;;;;;;;11.87;6.90;;;9.30;61.90;;;;;;5011900;28;21110;-68
2024/03/03 03:31:16;;;;;;;12.10;6.90;;;9.30;62.40;;;;;;5012137;28;20457;-67
2024/03/03 03:33:43;;;;;;;11.37;6.60;;;9.20;69.10;;;;;;5011642;28;20559;-68
2024/03/03 03:36:11;;;;;;;15.67;7.67;;;9.10;69.30;;;;;;5011695;28;20980;-68
2024/03/03 03:38:37;;;;;;;12.40;7.30;;;9.00;69.10;;;;;;5011926;28;20485;-68
2024/03/03 03:41:05;;;;;;;15.77;7.80;;;9.10;69.30;;;;;;5009663;28;20464;-68
2024/03/03 03:43:32;;;;;;;14.33;6.67;;;9.10;69.20;;;;;;5011946;28;20927;-68
2024/03/03 03:46:00;;;;;;;13.60;6.93;;;9.00;69.10;;;;;;5011442;28;20980;-68
2024/03/03 03:48:28;;;;;;;13.90;7.07;;;9.00;69.20;;;;;;5006633;28;20933;-67
2024/03/03 03:50:54;;;;;;;12.63;7.13;;;9.00;69.10;;;;;;5012403;28;20601;-68
2024/03/03 03:53:22;;;;;;;15.80;7.23;;;9.00;69.20;;;;;;5011769;28;20468;-67
2024/03/03 03:55:49;;;;;;;13.17;6.80;;;9.00;69.20;;;;;;4997157;28;20464;-68
2024/03/03 03:58:16;;;;;;;12.87;7.70;;;9.00;69.20;;;;;;5011976;28;20571;-68
2024/03/03 04:00:43;;;;;;;13.83;7.77;;;9.00;69.30;;;;;;5008758;28;20465;-68
2024/03/03 04:03:10;;;;;;;12.93;7.97;;;8.90;69.30;;;;;;5000112;28;20485;-67
2024/03/03 04:05:38;;;;;;;16.13;8.43;;;8.80;72.20;;;;;;5012760;28;20457;-67
2024/03/03 04:08:05;;;;;;;15.70;9.37;;;8.80;71.60;;;;;;4996229;28;20518;-67
2024/03/03 04:10:32;;;;;;;15.40;9.90;;;8.70;73.10;;;;;;5013831;28;20448;-68
2024/03/03 04:12:59;;;;;;;17.00;9.40;;;8.70;76.70;;;;;;5010095;28;20477;-68
2024/03/03 04:15:26;;;;;;;14.37;9.73;;;8.60;76.70;;;;;;5012441;28;20464;-68
2024/03/03 04:17:53;;;;;;;16.67;11.10;;;8.60;76.70;;;;;;5008300;28;20547;-68
2024/03/03 04:20:20;;;;;;;13.47;9.33;;;8.70;76.70;;;;;;5015661;28;20461;-68
2024/03/03 04:22:48;;;;;;;15.20;10.00;;;8.80;76.70;;;;;;5007690;28;20592;-68
2024/03/03 04:25:15;;;;;;;15.40;10.43;;;8.80;76.70;;;;;;5015456;28;20841;-68
2024/03/03 04:27:42;;;;;;;14.73;9.93;;;8.80;76.80;;;;;;5015148;28;20452;-68
2024/03/03 04:30:10;;;;;;;14.77;10.60;;;8.90;76.90;;;;;;5015080;28;20859;-67
2024/03/03 04:32:37;;;;;;;13.73;10.57;;;8.90;76.90;;;;;;5006973;28;20527;-68
2024/03/03 04:35:04;;;;;;;14.47;9.93;;;8.90;76.90;;;;;;5014155;28;20453;-67
2024/03/03 04:37:31;;;;;;;21.90;10.90;;;8.80;76.90;;;;;;5014177;28;20565;-68
2024/03/03 04:39:59;;;;;;;14.50;11.20;;;8.80;76.90;;;;;;5014717;28;20511;-68
2024/03/03 04:42:26;;;;;;;14.40;12.10;;;8.70;76.80;;;;;;5006624;28;20564;-67
2024/03/03 04:44:53;;;;;;;18.73;12.80;;;8.70;76.80;;;;;;5014793;28;20464;-68
2024/03/03 04:47:20;;;;;;;17.10;12.73;;;8.70;76.80;;;;;;5014942;28;20545;-68
2024/03/03 04:49:46;;;;;;;17.17;11.80;;;8.70;76.80;;;;;;5006803;28;20449;-68
2024/03/03 04:52:13;;;;;;;15.80;11.90;;;8.70;76.80;;;;;;5008331;28;20453;-68
2024/03/03 04:54:40;;;;;;;16.77;11.60;;;8.80;76.90;;;;;;5013348;28;20465;-68
2024/03/03 04:57:08;;;;;;;17.30;10.80;;;8.90;76.90;;;;;;5005141;28;20453;-68
2024/03/03 04:59:35;;;;;;;17.93;11.47;;;9.10;77.10;;;;;;5010782;28;21020;-68
2024/03/03 05:02:01;;;;;;;16.10;10.50;;;9.00;77.00;;;;;;5004199;28;20858;-68
2024/03/03 05:04:28;;;;;;;15.00;10.50;;;9.00;77.00;;;;;;5012907;28;21072;-68
2024/03/03 05:06:55;;;;;;;19.03;11.00;;;9.00;76.80;;;;;;5007161;28;20937;-68
2024/03/03 05:09:21;;;;;;;19.33;11.17;;;9.10;77.00;;;;;;5005692;28;20454;-68
2024/03/03 05:11:48;;;;;;;16.40;9.97;;;9.10;76.70;;;;;;4994487;28;20466;-68
2024/03/03 05:14:17;;;;;;;17.60;11.37;;;9.10;77.00;;;;;;4993723;28;20588;-68
2024/03/03 05:16:43;;;;;;;23.00;10.90;;;9.10;76.50;;;;;;5006335;28;20456;-67
2024/03/03 05:19:10;;;;;;;17.03;11.47;;;9.10;76.70;;;;;;5005182;28;20482;-67
2024/03/03 05:21:37;;;;;;;17.87;11.40;;;9.10;77.50;;;;;;5009193;28;20882;-68
2024/03/03 05:24:04;;;;;;;17.13;11.53;;;9.10;77.00;;;;;;5003460;28;20553;-67
2024/03/03 05:26:31;;;;;;;25.20;12.80;;;9.10;77.00;;;;;;5009335;28;20859;-68
2024/03/03 05:28:58;;;;;;;15.73;10.80;;;9.20;77.10;;;;;;5005835;28;20453;-67
2024/03/03 05:31:34;;;;;;;17.10;12.30;;;9.20;77.10;;;;;;5013677;28;20456;-68
2024/03/03 05:34:01;;;;;;;20.37;11.90;;;9.20;77.20;;;;;;5007517;28;20482;-68
2024/03/03 05:36:28;;;;;;;33.63;20.63;;;9.10;77.10;;;;;;5013330;28;20461;-66
2024/03/03 05:38:55;;;;;;;17.70;12.40;;;9.00;77.00;;;;;;5012592;28;20491;-71
2024/03/03 05:41:26;;;;;;;19.47;13.10;;;8.90;77.00;;;;;;5007860;28;20452;-68
2024/03/03 05:43:53;;;;;;;20.40;15.50;;;8.90;77.00;;;;;;4999829;28;20473;-68
2024/03/03 05:46:20;;;;;;;18.20;14.13;;;8.80;76.90;;;;;;5013086;28;20949;-68
2024/03/03 05:48:48;;;;;;;18.80;16.80;;;8.80;76.90;;;;;;4998906;28;20476;-68
2024/03/03 05:51:16;;;;;;;20.20;17.13;;;8.70;76.80;;;;;;5005112;28;20449;-67
2024/03/03 05:53:42;;;;;;;23.87;19.23;;;8.70;76.80;;;;;;5005377;28;20473;-68
2024/03/03 05:56:13;;;;;;;22.30;17.00;;;8.80;76.90;;;;;;5009456;28;20448;-68
2024/03/03 05:58:39;;;;;;;23.50;15.83;;;8.90;77.00;;;;;;5004609;28;20871;-67
2024/03/03 06:01:06;;;;;;;21.20;15.40;;;8.90;76.90;;;;;;5007515;28;20952;-68
2024/03/03 06:03:33;;;;;;;23.73;16.70;;;8.90;76.90;;;;;;5003923;28;20476;-68
2024/03/03 06:06:01;;;;;;;35.07;25.27;;;8.90;77.00;;;;;;5012552;28;20454;-67
2024/03/03 06:08:28;;;;;;;19.30;15.20;;;8.90;77.00;;;;;;5013149;28;20453;-67
2024/03/03 06:10:54;;;;;;;19.60;15.23;;;8.90;77.00;;;;;;5006756;28;20979;-68
2024/03/03 06:13:21;;;;;;;25.33;16.27;;;8.90;77.00;;;;;;5010730;28;20469;-68
2024/03/03 06:15:48;;;;;;;24.37;16.87;;;8.90;77.00;;;;;;5008881;28;20464;-68
2024/03/03 06:18:16;;;;;;;21.97;18.17;;;8.80;76.90;;;;;;5007737;28;20522;-68
2024/03/03 06:20:43;;;;;;;24.37;17.90;;;8.80;76.90;;;;;;5012483;28;20495;-68
2024/03/03 06:23:11;;;;;;;22.57;18.77;;;8.80;76.90;;;;;;5008381;28;20473;-68
2024/03/03 06:25:38;;;;;;;26.20;17.83;;;8.80;76.90;;;;;;5004546;28;20788;-68
2024/03/03 06:28:05;;;;;;;21.20;17.17;;;8.80;76.90;;;;;;5009540;28;20453;-68
2024/03/03 06:30:32;;;;;;;22.93;15.90;;;8.80;76.90;;;;;;5012272;28;20475;-68
2024/03/03 06:32:59;;;;;;;21.43;16.70;;;8.90;77.00;;;;;;5011902;28;20475;-68
2024/03/03 06:35:26;;;;;;;20.23;16.47;;;8.80;76.90;;;;;;5010112;28;20445;-68
2024/03/03 06:37:53;;;;;;;20.87;15.40;;;8.80;76.90;;;;;;4996145;28;20460;-68
2024/03/03 06:40:22;;;;;;;19.67;15.87;;;8.80;76.90;;;;;;5009997;28;20481;-68
2024/03/03 06:42:49;;;;;;;23.63;17.23;;;9.00;77.00;;;;;;5011294;28;20469;-68
2024/03/03 06:45:16;;;;;;;22.47;15.90;;;8.90;77.00;;;;;;5000845;28;20455;-67
2024/03/03 06:47:42;;;;;;;21.70;15.03;;;8.90;77.00;;;;;;5000768;28;20453;-68
2024/03/03 06:50:10;;;;;;;21.40;17.23;;;8.90;76.90;;;;;;5012438;28;20441;-68
2024/03/03 06:52:36;;;;;;;21.50;17.50;;;8.90;77.00;;;;;;5004526;28;20469;-68
2024/03/03 06:55:04;;;;;;;21.67;17.40;;;8.90;76.90;;;;;;5008671;28;20457;-67
2024/03/03 06:57:32;;;;;;;22.83;16.53;;;8.90;76.90;;;;;;5009604;28;20449;-67
2024/03/03 06:59:59;;;;;;;22.77;17.07;;;8.90;77.00;;;;;;5007002;28;20470;-67
2024/03/03 07:02:56;;;;;;;18.70;15.73;;;8.90;77.00;;;;;;5000262;28;20465;-68
2024/03/03 07:05:13;;;;;;;20.60;16.30;;;8.90;76.90;;;;;;5008654;28;20514;-68
2024/03/03 07:07:40;;;;;;;21.03;18.83;;;9.10;77.20;;;;;;5006506;28;20471;-67
2024/03/03 07:10:09;;;;;;;28.37;20.20;;;9.00;77.00;;;;;;5005952;28;20453;-68
2024/03/03 07:12:37;;;;;;;24.17;21.50;;;9.00;77.10;;;;;;5011692;28;20476;-68
2024/03/03 07:15:05;;;;;;;29.47;26.67;;;9.00;77.10;;;;;;5005606;28;20460;-68
2024/03/03 07:17:32;;;;;;;31.97;28.90;;;9.00;77.40;;;;;;5000065;28;20949;-68
2024/03/03 07:20:01;;;;;;;37.67;34.27;;;8.90;79.60;;;;;;5011922;28;20477;-68
2024/03/03 07:22:31;;;;;;;35.30;32.00;;;9.00;81.10;;;;;;5011571;28;20473;-68
2024/03/03 07:24:57;;;;;;;34.13;31.20;;;9.00;78.30;;;;;;5004951;28;20468;-68
2024/03/03 07:27:24;;;;;;;32.03;29.33;;;9.20;77.50;;;;;;5006897;28;20461;-68
2024/03/03 07:29:52;;;;;;;34.70;32.00;;;9.20;77.80;;;;;;5010356;28;20460;-68
2024/03/03 07:32:19;;;;;;;35.43;32.63;;;9.20;78.10;;;;;;4998659;28;20454;-67
2024/03/03 07:34:48;;;;;;;34.53;31.73;;;9.40;77.70;;;;;;4996924;28;20446;-67
2024/03/03 07:37:15;;;;;;;29.30;26.80;;;9.60;77.60;;;;;;5000308;28;20446;-68
2024/03/03 07:39:42;;;;;;;28.30;25.63;;;9.70;77.70;;;;;;5014553;28;20472;-67
2024/03/03 07:42:09;;;;;;;24.27;19.50;;;9.90;77.80;;;;;;5015525;28;20979;-68
2024/03/03 07:44:35;;;;;;;18.60;16.20;;;10.10;77.00;;;;;;5012951;28;20820;-68
2024/03/03 07:47:04;;;;;;;20.53;14.00;;;10.30;77.20;;;;;;5013418;28;20453;-67
2024/03/03 07:49:31;;;;;;;23.90;15.47;;;10.40;77.20;;;;;;5006539;28;20475;-68
2024/03/03 07:51:58;;;;;;;22.73;13.13;;;10.70;76.60;;;;;;5015482;28;20467;-68
2024/03/03 07:54:24;;;;;;;21.93;12.57;;;10.90;72.30;;;;;;5014625;28;21131;-68
2024/03/03 07:56:51;;;;;;;19.50;13.40;;;11.10;70.10;;;;;;5009847;28;20617;-68
2024/03/03 07:59:18;;;;;;;20.53;12.50;;;11.20;65.90;;;;;;5013961;28;20611;-68
2024/03/03 08:01:45;;;;;;;22.43;13.50;;;11.20;66.30;;;;;;5013890;28;20974;-68
2024/03/03 08:04:15;;;;;;;19.97;12.50;;;11.40;66.00;;;;;;5008767;28;20898;-68
2024/03/03 08:06:42;;;;;;;15.60;10.87;;;11.40;70.30;;;;;;5014209;28;20453;-68
2024/03/03 08:09:09;;;;;;;18.90;11.73;;;11.50;69.50;;;;;;5014324;28;20507;-71
2024/03/03 08:11:36;;;;;;;16.03;10.53;;;11.50;62.90;;;;;;5012689;28;20460;-68
2024/03/03 08:14:03;;;;;;;21.67;13.53;;;11.70;62.90;;;;;;5007604;28;20477;-68
2024/03/03 08:16:30;;;;;;;17.83;11.60;;;11.70;62.50;;;;;;5014508;28;20448;-69
2024/03/03 08:18:57;;;;;;;18.47;11.83;;;11.70;62.60;;;;;;5013098;28;20850;-68
2024/03/03 08:21:25;;;;;;;27.30;13.67;;;11.90;62.70;;;;;;5013508;28;20475;-68
2024/03/03 08:23:52;;;;;;;19.00;11.30;;;12.00;62.80;;;;;;5004735;28;20477;-65
2024/03/03 08:26:19;;;;;;;28.23;11.37;;;12.10;62.90;;;;;;5009592;28;20459;-68
2024/03/03 08:28:47;;;;;;;19.53;11.43;;;12.20;62.90;;;;;;5006450;28;20916;-68
2024/03/03 08:31:14;;;;;;;20.53;11.80;;;12.30;63.00;;;;;;5008836;28;20450;-68
2024/03/03 08:33:41;;;;;;;20.93;12.67;;;12.40;63.10;;;;;;5008612;28;20499;-68
2024/03/03 08:36:08;;;;;;;19.03;12.60;;;12.40;59.00;;;;;;5014226;28;20475;-68
2024/03/03 08:38:36;;;;;;;21.03;11.37;;;12.50;62.80;;;;;;5004988;28;20460;-68
2024/03/03 08:41:04;;;;;;;21.97;12.63;;;12.40;58.40;;;;;;5011949;28;20491;-67
2024/03/03 08:43:30;;;;;;;22.73;13.52;;;12.50;55.10;;;;;;5009628;28;20534;-68
2024/03/03 08:45:57;;;;;;;19.20;11.93;;;12.50;55.10;;;;;;5010606;28;20594;-67
2024/03/03 08:48:24;;;;;;;23.20;13.70;;;12.50;56.00;;;;;;5012652;28;20972;-68
2024/03/03 08:50:52;;;;;;;25.37;14.40;;;12.50;55.20;;;;;;5006869;28;20861;-68
2024/03/03 08:53:19;;;;;;;20.83;12.33;;;12.50;55.20;;;;;;5008058;28;21069;-68
2024/03/03 08:55:47;;;;;;;19.80;11.90;;;12.40;59.30;;;;;;5003766;28;20460;-68
2024/03/03 08:58:14;;;;;;;19.20;12.03;;;12.50;59.50;;;;;;5009417;28;20515;-68
2024/03/03 09:00:41;;;;;;;18.50;11.80;;;12.50;57.50;;;;;;5005020;28;20488;-66
2024/03/03 09:03:07;;;;;;;19.80;11.83;;;12.60;60.10;;;;;;5002213;28;20473;-68
2024/03/03 09:05:34;;;;;;;21.80;13.33;;;12.80;55.60;;;;;;5013287;28;20451;-68
2024/03/03 09:08:02;;;;;;;18.57;11.73;;;12.80;55.20;;;;;;5008988;28;21042;-68
2024/03/03 09:10:29;;;;;;;21.93;13.37;;;12.90;55.30;;;;;;5005063;28;20481;-69
2024/03/03 09:12:57;;;;;;;20.10;11.97;;;13.00;55.40;;;;;;4999567;28;20477;-68
2024/03/03 09:15:24;;;;;;;18.37;11.20;;;13.00;55.40;;;;;;5013663;28;20465;-68
2024/03/03 09:17:51;;;;;;;19.90;11.47;;;13.10;55.40;;;;;;5013748;28;20548;-68
2024/03/03 09:20:17;;;;;;;20.30;11.80;;;13.10;54.60;;;;;;5014244;28;20488;-68
2024/03/03 09:22:43;;;;;;;19.80;11.80;;;13.20;55.90;;;;;;5012023;28;20481;-67
2024/03/03 09:25:10;;;;;;;18.87;11.90;;;13.30;55.70;;;;;;5008557;28;20453;-68
2024/03/03 09:27:37;;;;;;;18.10;10.80;;;13.20;55.50;;;;;;5008131;28;20553;-68
2024/03/03 09:30:07;;;;;;;19.00;11.00;;;13.10;52.40;;;;;;5013690;28;20457;-68
2024/03/03 09:32:33;;;;;;;21.67;12.63;;;13.10;55.40;;;;;;5012339;28;20468;-68
2024/03/03 09:35:00;;;;;;;21.27;12.37;;;13.30;47.10;;;;;;4993616;28;20458;-68
2024/03/03 09:37:27;;;;;;;16.77;12.47;;;13.50;47.20;;;;;;5010593;28;20457;-68
2024/03/03 09:39:54;;;;;;;18.17;11.40;;;14.10;47.70;;;;;;5013428;28;21027;-68
2024/03/03 09:42:21;;;;;;;19.10;12.70;;;14.30;47.90;;;;;;5005028;28;20544;-68
2024/03/03 09:44:51;;;;;;;18.67;12.03;;;14.60;48.10;;;;;;5013284;28;20937;-68
2024/03/03 09:47:20;;;;;;;15.63;9.93;;;14.80;40.30;;;;;;5005998;28;20667;-69
2024/03/03 09:49:48;;;;;;;16.07;10.67;;;15.20;40.00;;;;;;5005693;28;20831;-68
2024/03/03 09:52:15;;;;;;;24.83;13.57;;;15.60;40.30;;;;;;5013564;28;20828;-68
2024/03/03 09:54:43;;;;;;;18.30;12.17;;;16.10;32.40;;;;;;5013255;28;20541;-68
2024/03/03 09:57:15;;;;;;;17.87;11.67;;;16.20;31.80;;;;;;5013112;28;20451;-68
2024/03/03 09:59:42;;;;;;;20.30;12.80;;;15.90;31.50;;;;;;5013273;28;20495;-68
2024/03/03 10:02:15;;;;;;;16.53;12.33;;;15.90;32.90;;;;;;4998282;28;20545;-68
2024/03/03 10:04:45;;;;;;;20.77;13.97;;;15.60;31.20;;;;;;5004128;28;20453;-68
2024/03/03 10:07:17;;;;;;;18.73;11.50;;;15.50;31.30;;;;;;5013228;28;20457;-68
2024/03/03 10:09:49;;;;;;;18.90;13.00;;;15.20;37.40;;;;;;5004703;28;20464;-68
2024/03/03 10:12:16;;;;;;;20.10;11.90;;;15.10;36.90;;;;;;5013130;28;20484;-68
2024/03/03 10:14:43;;;;;;;18.70;12.10;;;15.20;30.80;;;;;;5012689;28;20844;-68
2024/03/03 10:17:10;;;;;;;16.93;10.93;;;15.40;32.50;;;;;;5013173;28;20991;-68
2024/03/03 10:19:37;;;;;;;19.07;12.10;;;15.40;31.00;;;;;;5012838;28;20481;-67
2024/03/03 10:22:07;;;;;;;19.03;12.80;;;15.20;30.80;;;;;;5006899;28;20457;-67
2024/03/03 10:24:33;;;;;;;18.07;11.83;;;15.40;31.00;;;;;;5003000;28;20456;-68
2024/03/03 10:27:02;;;;;;;18.50;12.70;;;15.50;31.10;;;;;;5013091;28;20459;-67
2024/03/03 10:29:30;;;;;;;20.47;14.33;;;15.40;31.00;;;;;;5012643;28;20453;-68
2024/03/03 10:31:58;;;;;;;21.33;10.70;;;15.30;31.10;;;;;;5012878;28;20454;-68
2024/03/03 10:34:26;;;;;;;17.60;10.77;;;15.40;31.00;;;;;;5012000;28;20479;-67
2024/03/03 10:37:02;;;;;;;18.70;12.10;;;15.50;31.10;;;;;;5000152;28;20488;-68
2024/03/03 10:39:32;;;;;;;16.83;10.60;;;15.80;31.40;;;;;;4992688;28;20957;-68
2024/03/03 10:41:59;;;;;;;18.80;11.77;;;16.00;31.50;;;;;;4993049;28;20481;-68
2024/03/03 10:44:26;;;;;;;20.60;11.03;;;15.90;31.40;;;;;;5009455;28;20560;-68
2024/03/03 10:46:53;;;;;;;22.63;11.87;;;16.30;32.70;;;;;;5000019;28;20553;-68
2024/03/03 10:49:20;;;;;;;17.97;11.60;;;16.50;31.90;;;;;;4992789;28;20469;-68
2024/03/03 10:51:47;;;;;;;19.27;14.00;;;16.90;26.80;;;;;;4996525;28;20449;-68
2024/03/03 10:54:17;;;;;;;20.13;13.27;;;16.80;24.80;;;;;;5012024;28;20477;-68
2024/03/03 10:56:46;;;;;;;19.77;13.00;;;16.60;24.60;;;;;;5009157;28;20462;-68
2024/03/03 10:59:14;;;;;;;19.57;12.63;;;16.40;24.50;;;;;;4992490;28;20464;-68
2024/03/03 11:01:41;;;;;;;21.23;12.60;;;16.20;29.60;;;;;;4998614;28;20488;-68
2024/03/03 11:04:10;;;;;;;20.50;12.33;;;16.10;31.30;;;;;;4999543;28;20557;-67
2024/03/03 11:06:38;;;;;;;23.63;13.43;;;16.40;24.60;;;;;;5003383;28;20834;-68
2024/03/03 11:09:09;;;;;;;20.37;12.27;;;16.70;24.70;;;;;;4997443;28;20454;-68
2024/03/03 11:11:40;;;;;;;17.50;12.27;;;17.00;25.10;;;;;;4994475;28;20454;-68
2024/03/03 11:14:12;;;;;;;18.40;12.47;;;17.30;18.10;;;;;;5000480;28;20480;-69
2024/03/03 11:16:45;;;;;;;19.07;11.97;;;17.40;19.90;;;;;;5009778;28;20452;-69
2024/03/03 11:19:15;;;;;;;18.73;11.37;;;17.90;18.20;;;;;;4992538;28;21019;-69
2024/03/03 11:21:51;;;;;;;22.53;12.40;;;18.20;18.40;;;;;;4992268;28;21020;-69
2024/03/03 11:24:23;;;;;;;17.53;11.93;;;18.70;11.40;;;;;;4991956;28;20488;-69
2024/03/03 11:27:02;;;;;;;17.70;11.40;;;19.00;10.10;;;;;;4999407;28;20456;-69
2024/03/03 11:29:31;;;;;;;17.87;10.53;;;19.90;7.20;;;;;;5009757;28;20940;-68
2024/03/03 11:31:58;;;;;;;18.10;11.27;;;19.40;4.20;;;;;;5012057;28;20472;-67
2024/03/03 11:34:26;;;;;;;18.90;12.53;;;18.80;4.30;;;;;;5011289;28;20469;-67
2024/03/03 11:36:54;;;;;;;17.97;11.60;;;19.10;3.90;;;;;;5012024;28;20460;-67
2024/03/03 11:39:24;;;;;;;23.60;12.35;;;19.60;4.30;;;;;;5011798;28;20766;-67
2024/03/03 11:41:52;;;;;;;18.13;13.00;;;20.40;4.80;;;;;;5002911;28;20486;-67
2024/03/03 11:44:52;;;;;;;18.23;11.47;;;20.10;1.00;;;;;;5007452;28;20473;-68
2024/03/03 11:47:19;;;;;;;17.10;10.50;;;19.90;1.00;;;;;;5011406;28;20840;-66
2024/03/03 11:49:46;;;;;;;17.70;11.57;;;19.40;1.00;;;;;;4999543;28;20852;-67
2024/03/03 11:52:41;;;;;;;16.27;11.43;;;18.70;3.40;;;;;;5006672;28;20460;-67
2024/03/03 11:55:09;;;;;;;18.70;12.70;;;18.70;3.60;;;;;;5010793;28;20455;-67
2024/03/03 11:57:40;;;;;;;17.03;11.83;;;19.30;4.10;;;;;;5011474;28;20973;-68
2024/03/03 12:00:16;;;;;;;20.00;11.67;;;20.10;3.20;;;;;;5011344;28;20572;-68
2024/03/03 12:02:44;;;;;;;16.50;11.40;;;20.20;1.00;;;;;;5009908;28;20473;-68
2024/03/03 12:05:11;;;;;;;19.73;13.00;;;20.30;4.70;;;;;;5011445;28;20841;-68
2024/03/03 12:07:42;;;;;;;17.83;11.80;;;20.20;1.00;;;;;;5011545;28;20487;-68
2024/03/03 12:10:17;;;;;;;18.37;12.80;;;20.30;1.00;;;;;;5011505;28;20480;-67
2024/03/03 12:12:48;;;;;;;17.93;12.20;;;20.40;1.00;;;;;;5003146;28;20583;-68
2024/03/03 12:15:17;;;;;;;20.50;12.30;;;20.40;1.00;;;;;;5011546;28;20952;-66
2024/03/03 12:17:47;;;;;;;15.43;10.03;;;20.80;1.00;;;;;;5011451;28;20991;-67
2024/03/03 12:20:16;;;;;;;19.30;12.60;;;20.70;1.00;;;;;;5003747;28;20485;-66
2024/03/03 12:22:43;;;;;;;16.47;10.67;;;20.70;1.00;;;;;;4995062;28;20526;-66
2024/03/03 12:25:10;;;;;;;15.70;11.23;;;20.70;1.00;;;;;;5003638;28;21110;-66
2024/03/03 12:27:38;;;;;;;21.77;13.07;;;20.50;1.00;;;;;;5014992;28;20453;-65
2024/03/03 12:30:09;;;;;;;16.57;11.57;;;20.90;1.00;;;;;;5000691;28;21013;-66
2024/03/03 12:32:37;;;;;;;17.17;12.17;;;20.90;1.00;;;;;;5002715;28;20560;-65
2024/03/03 12:35:04;;;;;;;16.30;11.17;;;21.10;1.00;;;;;;5014671;28;20453;-66
2024/03/03 12:37:32;;;;;;;19.60;12.33;;;21.10;1.00;;;;;;5011042;28;20453;-66